Time;durP1;ratioP1;P1;durP2;ratioP2;P2;SDS_P1;SDS_P2;PMS_P1;PMS_P2;Temp;Humidity;BMP_temperature;BMP_pressure;BME280_temperature;BME280_humidity;BME280_pressure;Samples;Min_cycle;Max_cycle;Signal;HPM_P1;HPM_P2
2024/03/05 00:02:02;;;;;;;59.73;54.20;;;9.40;99.90;;;;;;5160444;27;20444;-78
2024/03/05 00:04:32;;;;;;;57.73;52.37;;;9.40;99.90;;;;;;5160204;27;20453;-79
2024/03/05 00:07:00;;;;;;;63.37;57.40;;;9.40;99.90;;;;;;5160086;27;20455;-79
2024/03/05 00:09:31;;;;;;;62.03;56.07;;;9.40;99.90;;;;;;5160083;27;20465;-79
2024/03/05 00:11:59;;;;;;;60.67;54.93;;;9.40;99.90;;;;;;5178752;27;20417;-79
2024/03/05 00:14:28;;;;;;;60.50;54.83;;;9.40;99.90;;;;;;5159705;27;20459;-79
2024/03/05 00:16:56;;;;;;;59.90;54.20;;;9.40;99.90;;;;;;5160599;27;20448;-79
2024/03/05 00:19:25;;;;;;;62.70;56.90;;;9.30;99.90;;;;;;5159549;27;20468;-78
2024/03/05 00:21:54;;;;;;;61.13;55.53;;;9.30;99.90;;;;;;5178336;27;20515;-79
2024/03/05 00:24:23;;;;;;;60.60;54.80;;;9.30;99.90;;;;;;5159172;27;20448;-78
2024/03/05 00:26:52;;;;;;;64.70;58.70;;;9.30;99.90;;;;;;5178737;27;20460;-78
2024/03/05 00:29:21;;;;;;;63.03;57.00;;;9.30;99.90;;;;;;5159097;27;20468;-78
2024/03/05 00:31:49;;;;;;;64.38;58.45;;;9.30;99.90;;;;;;5177996;27;20429;-78
2024/03/05 00:34:18;;;;;;;62.73;56.57;;;9.30;99.90;;;;;;5178127;27;20668;-76
2024/03/05 00:36:46;;;;;;;65.37;59.07;;;9.30;99.90;;;;;;5158129;27;21024;-78
2024/03/05 00:39:15;;;;;;;63.67;57.57;;;9.20;99.90;;;;;;5158392;27;20461;-77
2024/03/05 00:41:44;;;;;;;64.33;58.10;;;9.20;99.90;;;;;;5158285;27;20440;-76
2024/03/05 00:44:16;;;;;;;63.73;57.73;;;9.20;99.90;;;;;;5158273;27;20455;-77
2024/03/05 00:46:44;;;;;;;63.73;57.47;;;9.20;99.90;;;;;;5158342;27;20433;-77
2024/03/05 00:49:13;;;;;;;64.33;58.30;;;9.20;99.90;;;;;;5158380;27;21001;-80
2024/03/05 00:51:41;;;;;;;62.83;56.60;;;9.20;99.90;;;;;;5157994;27;20504;-78
2024/03/05 00:54:10;;;;;;;63.67;57.47;;;9.10;99.90;;;;;;5158158;27;20465;-77
2024/03/05 00:56:39;;;;;;;62.87;57.03;;;9.10;99.90;;;;;;5176813;27;20432;-77
2024/03/05 00:59:08;;;;;;;63.83;57.60;;;9.10;99.90;;;;;;5157828;27;20875;-78
2024/03/05 01:01:39;;;;;;;61.40;55.20;;;9.10;99.90;;;;;;5158120;27;20461;-80
2024/03/05 01:04:08;;;;;;;60.80;54.87;;;9.10;99.90;;;;;;5158615;27;20441;-77
2024/03/05 01:06:37;;;;;;;60.67;54.93;;;9.00;99.90;;;;;;5158431;27;20501;-77
2024/03/05 01:09:11;;;;;;;59.43;53.63;;;9.00;99.90;;;;;;5158468;27;20456;-79
2024/03/05 01:11:40;;;;;;;58.50;52.80;;;9.00;99.90;;;;;;5158600;27;20435;-78
2024/03/05 01:14:08;;;;;;;57.80;52.00;;;9.00;99.90;;;;;;5158069;27;20448;-77
2024/03/05 01:16:38;;;;;;;52.97;48.08;;;8.90;99.90;;;;;;5159709;27;20482;-78
2024/03/05 01:19:07;;;;;;;56.40;50.60;;;8.90;99.90;;;;;;5163010;27;20218;-77
2024/03/05 01:21:36;;;;;;;54.67;49.37;;;8.90;99.90;;;;;;5181282;27;20456;-78
2024/03/05 01:24:05;;;;;;;53.87;48.67;;;8.90;99.90;;;;;;5162304;27;20508;-79
2024/03/05 01:26:35;;;;;;;53.30;48.57;;;8.90;99.90;;;;;;5162108;27;20437;-79
2024/03/05 01:29:04;;;;;;;51.87;46.77;;;8.80;99.90;;;;;;5162089;27;20828;-78
2024/03/05 01:31:36;;;;;;;51.43;46.63;;;8.80;99.90;;;;;;5162047;27;20441;-78
2024/03/05 01:34:10;;;;;;;51.03;46.10;;;8.70;99.90;;;;;;5162172;27;20444;-78
2024/03/05 01:36:39;;;;;;;50.67;45.87;;;8.70;99.90;;;;;;5161810;27;20481;-77
2024/03/05 01:39:11;;;;;;;47.97;43.50;;;8.70;99.90;;;;;;5161801;27;20513;-78
2024/03/05 01:41:39;;;;;;;48.00;43.23;;;8.70;99.90;;;;;;5161722;27;20467;-77
2024/03/05 01:44:11;;;;;;;45.37;41.27;;;8.60;99.90;;;;;;5161700;27;20956;-78
2024/03/05 01:46:42;;;;;;;47.07;42.67;;;8.60;99.90;;;;;;5161887;27;20441;-78
2024/03/05 01:49:13;;;;;;;46.73;42.30;;;8.60;99.90;;;;;;5161749;27;20452;-78
2024/03/05 01:51:47;;;;;;;45.10;40.90;;;8.60;99.90;;;;;;5180759;27;20882;-78
2024/03/05 01:54:18;;;;;;;44.97;40.27;;;8.50;99.90;;;;;;5161416;27;20441;-78
2024/03/05 01:56:50;;;;;;;45.77;41.40;;;8.50;99.90;;;;;;5161495;27;20463;-78
2024/03/05 01:59:19;;;;;;;47.40;42.80;;;8.50;99.90;;;;;;5161197;27;20476;-77
2024/03/05 02:01:50;;;;;;;45.53;40.70;;;8.50;99.90;;;;;;5180444;27;20479;-77
2024/03/05 02:04:25;;;;;;;45.27;41.03;;;8.40;99.90;;;;;;5161111;27;20532;-78
2024/03/05 02:06:56;;;;;;;44.20;40.20;;;8.40;99.90;;;;;;5161486;27;20439;-79
2024/03/05 02:09:25;;;;;;;43.37;39.07;;;8.40;99.90;;;;;;5161239;27;20567;-78
2024/03/05 02:11:54;;;;;;;41.40;37.60;;;8.40;99.90;;;;;;5161091;27;20843;-79
2024/03/05 02:14:27;;;;;;;42.60;38.50;;;8.30;99.90;;;;;;5160940;27;20925;-77
2024/03/05 02:16:58;;;;;;;41.77;37.47;;;8.30;99.90;;;;;;5161283;27;20441;-77
2024/03/05 02:19:31;;;;;;;41.17;37.40;;;8.20;99.90;;;;;;5160953;27;20537;-78
2024/03/05 02:22:06;;;;;;;40.40;36.20;;;8.20;99.90;;;;;;5160840;27;20461;-78
2024/03/05 02:24:34;;;;;;;40.50;36.73;;;8.20;99.90;;;;;;5161104;27;20432;-78
2024/03/05 02:27:03;;;;;;;40.40;36.57;;;8.10;99.90;;;;;;5160662;27;20447;-79
2024/03/05 02:29:38;;;;;;;38.90;35.17;;;8.10;99.90;;;;;;5179458;27;20539;-78
2024/03/05 02:32:09;;;;;;;38.30;34.77;;;8.00;99.90;;;;;;5160964;27;20443;-78
2024/03/05 02:34:38;;;;;;;38.90;35.27;;;8.00;99.90;;;;;;5160695;27;20445;-77
2024/03/05 02:37:14;;;;;;;39.10;35.40;;;8.00;99.90;;;;;;5160726;27;20480;-77
2024/03/05 02:39:44;;;;;;;38.10;34.60;;;8.00;99.90;;;;;;5160457;27;20456;-77
2024/03/05 02:42:14;;;;;;;42.00;37.70;;;7.90;99.90;;;;;;5160065;27;20467;-76
2024/03/05 02:44:43;;;;;;;40.17;36.37;;;7.90;99.90;;;;;;5160061;27;20505;-77
2024/03/05 02:47:13;;;;;;;38.60;34.80;;;7.90;99.90;;;;;;5160268;27;20444;-80
2024/03/05 02:49:42;;;;;;;39.40;35.60;;;7.90;99.90;;;;;;5160533;27;20603;-78
2024/03/05 02:52:12;;;;;;;37.73;34.10;;;7.90;99.90;;;;;;5161160;27;20466;-78
2024/03/05 02:54:40;;;;;;;37.13;33.40;;;7.90;99.90;;;;;;5160512;27;20465;-78
2024/03/05 02:57:14;;;;;;;37.07;33.37;;;7.80;99.90;;;;;;5161250;27;20447;-77
2024/03/05 02:59:43;;;;;;;38.13;33.23;;;7.80;99.90;;;;;;5160548;27;20456;-78
2024/03/05 03:02:11;;;;;;;37.37;33.67;;;7.80;99.90;;;;;;5160332;27;20471;-77
2024/03/05 03:04:40;;;;;;;35.90;32.60;;;7.80;99.90;;;;;;5160220;27;20513;-78
2024/03/05 03:07:09;;;;;;;37.23;33.87;;;7.80;99.90;;;;;;5160482;27;20448;-78
2024/03/05 03:09:41;;;;;;;36.53;33.00;;;7.80;99.90;;;;;;5160217;27;20460;-78
2024/03/05 03:12:10;;;;;;;38.17;34.37;;;7.80;99.90;;;;;;5160714;27;20444;-78
2024/03/05 03:14:44;;;;;;;36.87;33.07;;;7.80;99.90;;;;;;5159875;27;20445;-78
2024/03/05 03:17:15;;;;;;;37.73;34.03;;;7.80;99.90;;;;;;5160021;27;20918;-78
2024/03/05 03:19:44;;;;;;;36.70;33.20;;;7.80;99.90;;;;;;5159775;27;20554;-78
2024/03/05 03:22:13;;;;;;;35.10;31.90;;;7.80;99.90;;;;;;5160132;27;20461;-78
2024/03/05 03:24:46;;;;;;;36.87;33.53;;;7.70;99.90;;;;;;5179384;27;20436;-78
2024/03/05 03:27:17;;;;;;;36.97;33.40;;;7.70;99.90;;;;;;5160207;27;20452;-79
2024/03/05 03:29:45;;;;;;;35.30;31.97;;;7.70;99.90;;;;;;5179181;27;20459;-79
2024/03/05 03:32:14;;;;;;;35.33;31.73;;;7.60;99.90;;;;;;5160671;27;20894;-78
2024/03/05 03:34:42;;;;;;;35.93;32.33;;;7.60;99.90;;;;;;5159755;27;20443;-77
2024/03/05 03:37:12;;;;;;;33.57;30.47;;;7.60;99.90;;;;;;5159589;27;20479;-79
2024/03/05 03:39:47;;;;;;;34.60;31.00;;;7.60;99.90;;;;;;5159025;27;21028;-77
2024/03/05 03:42:19;;;;;;;35.20;31.67;;;7.50;99.90;;;;;;5159343;27;20542;-76
2024/03/05 03:44:48;;;;;;;34.97;31.30;;;7.50;99.90;;;;;;5159536;27;20804;-77
2024/03/05 03:47:19;;;;;;;36.78;33.17;;;7.50;99.90;;;;;;5178266;27;20829;-77
2024/03/05 03:49:49;;;;;;;33.50;30.20;;;7.50;99.90;;;;;;5159568;27;20700;-78
2024/03/05 03:52:18;;;;;;;35.30;31.87;;;7.50;99.90;;;;;;5160615;27;20861;-79
2024/03/05 03:54:50;;;;;;;34.20;31.10;;;7.50;99.90;;;;;;5179184;27;20434;-79
2024/03/05 03:57:20;;;;;;;35.00;31.57;;;7.50;99.90;;;;;;5160001;27;20439;-78
2024/03/05 03:59:48;;;;;;;32.60;29.37;;;7.50;99.90;;;;;;5159473;27;20468;-78
2024/03/05 04:02:19;;;;;;;34.70;31.43;;;7.40;99.90;;;;;;5159444;27;20467;-78
2024/03/05 04:04:49;;;;;;;32.80;29.53;;;7.40;99.90;;;;;;5159899;27;20472;-78
2024/03/05 04:07:18;;;;;;;32.97;29.90;;;7.40;99.90;;;;;;5162001;27;20447;-79
2024/03/05 04:09:50;;;;;;;32.77;29.70;;;7.30;99.90;;;;;;5160809;27;20524;-78
2024/03/05 04:12:24;;;;;;;36.00;32.20;;;7.30;99.90;;;;;;5160204;27;20436;-79
2024/03/05 04:14:52;;;;;;;34.27;30.70;;;7.20;99.90;;;;;;5159551;27;20628;-78
2024/03/05 04:17:21;;;;;;;32.80;29.90;;;7.20;99.90;;;;;;5178471;27;20431;-78
2024/03/05 04:19:50;;;;;;;32.50;29.40;;;7.20;99.90;;;;;;5158675;27;20456;-78
2024/03/05 04:22:19;;;;;;;32.90;29.30;;;7.10;99.90;;;;;;5160030;27;21060;-78
2024/03/05 04:24:55;;;;;;;33.60;30.30;;;7.10;99.90;;;;;;5159737;27;20447;-78
2024/03/05 04:27:27;;;;;;;32.30;29.07;;;7.10;99.90;;;;;;5178126;27;20978;-78
2024/03/05 04:29:57;;;;;;;34.60;30.90;;;7.00;99.90;;;;;;5159503;27;20811;-78
2024/03/05 04:32:29;;;;;;;35.80;30.23;;;7.00;99.90;;;;;;5159053;27;20526;-78
2024/03/05 04:35:06;;;;;;;34.60;31.13;;;6.90;99.90;;;;;;5159228;27;20443;-78
2024/03/05 04:37:38;;;;;;;36.53;32.83;;;6.90;99.90;;;;;;5158638;27;20439;-78
2024/03/05 04:40:11;;;;;;;33.20;29.80;;;6.90;99.90;;;;;;5158927;27;20497;-78
2024/03/05 04:42:40;;;;;;;33.80;30.20;;;6.90;99.90;;;;;;5158919;27;20470;-78
2024/03/05 04:45:09;;;;;;;35.13;31.70;;;6.90;99.90;;;;;;5158660;27;20487;-77
2024/03/05 04:47:40;;;;;;;33.17;29.77;;;6.80;99.90;;;;;;5158875;27;20447;-78
2024/03/05 04:50:09;;;;;;;34.33;30.90;;;6.80;99.90;;;;;;5157657;27;20437;-78
2024/03/05 04:52:38;;;;;;;32.20;29.03;;;6.80;99.90;;;;;;5158473;27;20440;-78
2024/03/05 04:55:09;;;;;;;34.87;31.30;;;6.70;99.90;;;;;;5177336;27;20495;-78
2024/03/05 04:57:38;;;;;;;37.13;33.60;;;6.70;99.90;;;;;;5158588;27;20531;-79
2024/03/05 05:00:19;;;;;;;36.40;32.57;;;6.70;99.90;;;;;;5158553;27;20451;-78
2024/03/05 05:02:51;;;;;;;35.30;31.50;;;6.70;99.90;;;;;;5158340;27;21005;-77
2024/03/05 05:05:24;;;;;;;34.87;31.13;;;6.60;99.90;;;;;;5158536;27;20517;-78
2024/03/05 05:07:59;;;;;;;35.00;31.43;;;6.60;99.90;;;;;;5158016;27;20471;-78
2024/03/05 05:10:31;;;;;;;37.57;33.80;;;6.60;99.90;;;;;;5158069;27;20484;-77
2024/03/05 05:13:00;;;;;;;37.40;33.60;;;6.60;99.90;;;;;;5158107;27;20439;-78
2024/03/05 05:15:30;;;;;;;36.97;33.13;;;6.60;99.90;;;;;;5158126;27;20446;-77
2024/03/05 05:17:59;;;;;;;42.43;35.10;;;6.60;99.90;;;;;;5158166;27;20512;-77
2024/03/05 05:20:28;;;;;;;35.10;31.53;;;6.60;99.90;;;;;;5176880;27;20932;-78
2024/03/05 05:22:58;;;;;;;38.17;34.57;;;6.60;99.90;;;;;;5157675;27;20481;-77
2024/03/05 05:25:28;;;;;;;38.87;34.87;;;6.50;99.90;;;;;;5158039;27;20998;-78
2024/03/05 05:28:00;;;;;;;35.47;31.93;;;6.50;99.90;;;;;;5157795;27;20824;-78
2024/03/05 05:30:28;;;;;;;36.13;32.53;;;6.50;99.90;;;;;;5158119;27;20845;-78
2024/03/05 05:33:00;;;;;;;36.50;32.60;;;6.50;99.90;;;;;;5157851;27;20496;-77
2024/03/05 05:35:29;;;;;;;37.67;34.07;;;6.50;99.90;;;;;;5157683;27;20860;-78
2024/03/05 05:37:58;;;;;;;34.83;31.20;;;6.50;99.90;;;;;;5176122;27;20510;-77
2024/03/05 05:40:29;;;;;;;35.03;31.43;;;6.40;99.90;;;;;;5157618;27;20535;-77
2024/03/05 05:42:59;;;;;;;34.13;30.00;;;6.40;99.90;;;;;;5176643;27;20470;-77
2024/03/05 05:45:30;;;;;;;36.03;32.43;;;6.40;99.90;;;;;;5157460;27;20445;-76
2024/03/05 05:47:58;;;;;;;35.07;31.50;;;6.40;99.90;;;;;;5157551;27;20478;-77
2024/03/05 05:50:31;;;;;;;36.10;32.20;;;6.30;99.90;;;;;;5158619;27;20538;-77
2024/03/05 05:52:59;;;;;;;33.57;30.10;;;6.30;99.90;;;;;;5157255;27;20439;-77
2024/03/05 05:55:34;;;;;;;36.77;32.33;;;6.30;99.90;;;;;;5176096;27;20419;-77
2024/03/05 05:58:13;;;;;;;34.33;30.93;;;6.30;99.90;;;;;;5157384;27;20476;-78
2024/03/05 06:00:41;;;;;;;34.27;30.73;;;6.30;99.90;;;;;;5157318;27;20443;-77
2024/03/05 06:03:12;;;;;;;36.57;32.87;;;6.30;99.90;;;;;;5160181;27;20523;-77
2024/03/05 06:05:42;;;;;;;37.10;32.23;;;6.20;99.90;;;;;;5161969;27;20443;-78
2024/03/05 06:08:14;;;;;;;37.43;33.07;;;6.20;99.90;;;;;;5179793;27;20535;-78
2024/03/05 06:10:43;;;;;;;34.70;30.80;;;6.20;99.90;;;;;;5161186;27;20454;-78
2024/03/05 06:13:16;;;;;;;36.07;32.50;;;6.20;99.90;;;;;;5180223;27;20447;-76
2024/03/05 06:15:49;;;;;;;36.50;32.60;;;6.20;99.90;;;;;;5161691;27;20465;-78
2024/03/05 06:18:21;;;;;;;35.37;31.57;;;6.20;99.90;;;;;;5161558;27;20474;-78
2024/03/05 06:20:49;;;;;;;34.27;30.73;;;6.20;99.90;;;;;;5161305;27;20494;-79
2024/03/05 06:23:18;;;;;;;37.57;33.77;;;6.20;99.90;;;;;;5161061;27;20466;-78
2024/03/05 06:25:49;;;;;;;38.37;33.37;;;6.20;99.90;;;;;;5164412;27;20440;-78
2024/03/05 06:28:19;;;;;;;40.37;31.87;;;6.20;99.90;;;;;;5163205;27;20471;-79
2024/03/05 06:30:50;;;;;;;38.33;34.23;;;6.20;99.90;;;;;;5161765;27;20436;-78
2024/03/05 06:33:19;;;;;;;37.40;33.70;;;6.20;99.90;;;;;;5161677;27;20997;-78
2024/03/05 06:35:48;;;;;;;34.73;31.43;;;6.20;99.90;;;;;;5161450;27;20447;-78
2024/03/05 06:38:17;;;;;;;34.97;31.23;;;6.20;99.90;;;;;;5161180;27;20519;-78
2024/03/05 06:40:46;;;;;;;34.43;31.13;;;6.20;99.90;;;;;;5161057;27;20509;-78
2024/03/05 06:43:20;;;;;;;39.13;32.67;;;6.20;99.90;;;;;;5160968;27;20463;-77
2024/03/05 06:45:52;;;;;;;38.33;34.60;;;6.20;99.90;;;;;;5161290;27;20453;-78
2024/03/05 06:48:24;;;;;;;39.63;35.67;;;6.20;99.90;;;;;;5161383;27;20503;-77
2024/03/05 06:50:57;;;;;;;37.63;33.70;;;6.20;99.90;;;;;;5180098;27;20869;-77
2024/03/05 06:59:04;;;;;;;38.00;33.93;;;6.20;99.90;;;;;;5179949;27;20455;-78
2024/03/05 07:01:36;;;;;;;38.37;32.77;;;6.20;99.90;;;;;;5160896;27;20441;-78
2024/03/05 07:04:06;;;;;;;36.20;32.43;;;6.20;99.90;;;;;;5160825;27;20456;-77
2024/03/05 07:06:35;;;;;;;41.43;36.73;;;6.20;99.90;;;;;;5160875;27;20452;-77
2024/03/05 07:09:06;;;;;;;37.63;33.63;;;6.10;99.90;;;;;;5160681;27;20465;-78
2024/03/05 07:11:35;;;;;;;41.90;37.67;;;6.10;99.90;;;;;;5161314;27;20458;-77
2024/03/05 07:14:04;;;;;;;43.90;39.23;;;6.10;99.90;;;;;;5159226;27;20438;-78
2024/03/05 07:16:33;;;;;;;42.30;37.70;;;6.10;99.90;;;;;;5160766;27;20452;-78
2024/03/05 07:19:08;;;;;;;39.90;35.60;;;6.10;99.90;;;;;;5160602;27;20468;-78
2024/03/05 07:21:37;;;;;;;40.77;36.67;;;6.00;99.90;;;;;;5159936;27;20471;-77
2024/03/05 07:24:11;;;;;;;42.90;38.50;;;6.10;99.90;;;;;;5177924;27;20461;-77
2024/03/05 07:26:40;;;;;;;41.83;37.03;;;6.10;99.90;;;;;;5159569;27;20432;-76
2024/03/05 07:29:24;;;;;;;43.70;35.23;;;6.10;99.90;;;;;;5159455;27;20528;-78
2024/03/05 07:31:54;;;;;;;43.00;38.17;;;6.00;99.90;;;;;;5159808;27;20444;-76
2024/03/05 07:34:29;;;;;;;46.10;38.03;;;6.00;99.90;;;;;;5159421;27;20437;-77
2024/03/05 07:36:57;;;;;;;48.97;43.33;;;6.00;99.90;;;;;;5159300;27;20493;-76
2024/03/05 07:39:26;;;;;;;46.30;39.37;;;6.00;99.90;;;;;;5159294;27;20466;-76
2024/03/05 07:41:55;;;;;;;41.67;36.20;;;6.00;99.90;;;;;;5159179;27;20942;-77
2024/03/05 07:44:23;;;;;;;46.50;37.93;;;6.00;99.90;;;;;;5159009;27;20467;-77
2024/03/05 07:46:53;;;;;;;47.23;42.40;;;6.00;99.90;;;;;;5159066;27;20447;-77
2024/03/05 07:49:22;;;;;;;47.73;38.93;;;6.00;99.90;;;;;;5159235;27;20466;-77
2024/03/05 07:51:53;;;;;;;45.00;38.60;;;6.00;99.90;;;;;;5159059;27;20440;-77
2024/03/05 07:54:22;;;;;;;48.70;41.70;;;6.00;99.90;;;;;;5159880;27;20534;-78
2024/03/05 07:56:51;;;;;;;45.67;39.60;;;6.00;99.90;;;;;;5158915;27;20455;-76
2024/03/05 07:59:19;;;;;;;45.83;38.50;;;6.00;99.90;;;;;;5158737;27;20471;-78
2024/03/05 08:01:48;;;;;;;47.07;42.03;;;6.00;99.90;;;;;;5158876;27;20483;-78
2024/03/05 08:04:18;;;;;;;52.00;41.13;;;6.00;99.90;;;;;;5158503;27;20821;-76
2024/03/05 08:06:48;;;;;;;46.80;40.00;;;6.00;99.90;;;;;;5158789;27;20491;-77
2024/03/05 08:09:18;;;;;;;47.03;38.63;;;6.00;99.90;;;;;;5158674;27;20481;-77
2024/03/05 08:11:49;;;;;;;46.87;41.93;;;6.00;99.90;;;;;;5158289;27;20941;-77
2024/03/05 08:14:18;;;;;;;48.23;42.60;;;6.00;99.90;;;;;;5158386;27;20443;-77
2024/03/05 08:16:47;;;;;;;48.40;41.60;;;6.00;99.90;;;;;;5158474;27;20439;-76
2024/03/05 08:19:19;;;;;;;49.27;44.23;;;6.00;99.90;;;;;;5158519;27;20483;-76
2024/03/05 08:21:47;;;;;;;44.60;39.63;;;6.00;99.90;;;;;;5158302;27;20445;-77
2024/03/05 08:24:16;;;;;;;48.70;42.33;;;6.00;99.90;;;;;;5158141;27;21069;-76
2024/03/05 08:26:47;;;;;;;49.90;43.20;;;6.00;99.90;;;;;;5158090;27;20451;-77
2024/03/05 08:29:16;;;;;;;48.77;39.70;;;6.00;99.90;;;;;;5158281;27;20475;-78
2024/03/05 08:31:47;;;;;;;55.83;46.60;;;6.00;99.90;;;;;;5158262;27;20441;-79
2024/03/05 08:34:17;;;;;;;50.57;43.33;;;6.00;99.90;;;;;;5157985;27;20628;-78
2024/03/05 08:36:49;;;;;;;51.57;43.33;;;6.00;99.90;;;;;;5157923;27;20785;-77
2024/03/05 08:39:18;;;;;;;48.47;42.50;;;6.00;99.90;;;;;;5158007;27;20473;-77
2024/03/05 08:41:47;;;;;;;47.20;42.30;;;6.00;99.90;;;;;;5157780;27;20447;-77
2024/03/05 08:44:19;;;;;;;49.60;44.30;;;6.00;99.90;;;;;;5158814;27;20921;-77
2024/03/05 08:46:47;;;;;;;54.97;48.17;;;6.00;99.90;;;;;;5183725;27;20418;-78
2024/03/05 08:49:15;;;;;;;51.27;43.70;;;6.00;99.90;;;;;;5158291;27;20467;-78
2024/03/05 08:51:46;;;;;;;50.43;45.07;;;6.00;99.90;;;;;;5177112;27;20438;-77
2024/03/05 08:54:14;;;;;;;53.90;48.23;;;6.00;99.90;;;;;;5158154;27;20497;-77
2024/03/05 08:56:45;;;;;;;54.63;48.73;;;6.00;99.90;;;;;;5157843;27;20448;-77
2024/03/05 08:59:15;;;;;;;52.97;42.50;;;6.00;99.90;;;;;;5157760;27;20464;-78
2024/03/05 09:01:43;;;;;;;52.33;46.67;;;6.00;99.90;;;;;;5158410;27;20476;-79
2024/03/05 09:04:12;;;;;;;51.00;44.00;;;6.00;99.90;;;;;;5158436;27;20496;-79
2024/03/05 09:06:40;;;;;;;50.57;43.57;;;6.00;99.90;;;;;;5177333;27;20984;-78
2024/03/05 09:09:12;;;;;;;50.07;43.10;;;6.00;99.90;;;;;;5177666;27;20446;-78
2024/03/05 09:11:40;;;;;;;59.50;49.07;;;6.00;99.90;;;;;;5158292;27;20860;-78
2024/03/05 09:14:14;;;;;;;56.60;48.20;;;6.00;99.90;;;;;;5158697;27;20468;-78
2024/03/05 09:16:43;;;;;;;48.73;43.40;;;6.00;99.90;;;;;;5158117;27;20793;-76
2024/03/05 09:19:16;;;;;;;52.17;45.80;;;6.00;99.90;;;;;;5176190;27;20448;-78
2024/03/05 09:21:45;;;;;;;50.43;44.93;;;6.00;99.90;;;;;;5158388;27;20439;-78
2024/03/05 09:24:19;;;;;;;52.47;46.23;;;6.00;99.90;;;;;;5157539;27;20909;-76
2024/03/05 09:26:47;;;;;;;48.37;43.10;;;6.00;99.90;;;;;;5157598;27;20471;-79
2024/03/05 09:29:17;;;;;;;49.93;44.53;;;6.00;99.90;;;;;;5157400;27;20497;-76
2024/03/05 09:31:49;;;;;;;49.87;44.30;;;6.00;99.90;;;;;;5158098;27;20444;-78
2024/03/05 09:34:19;;;;;;;52.97;45.07;;;6.00;99.90;;;;;;5158527;27;20878;-78
2024/03/05 09:36:49;;;;;;;53.17;47.67;;;6.00;99.90;;;;;;5159763;27;20529;-78
2024/03/05 09:39:21;;;;;;;55.13;49.43;;;6.00;99.90;;;;;;5163085;27;20494;-78
2024/03/05 09:41:52;;;;;;;53.90;46.13;;;6.00;99.90;;;;;;5163193;27;20440;-79
2024/03/05 09:44:21;;;;;;;56.37;46.67;;;6.00;99.90;;;;;;5181767;27;20436;-78
2024/03/05 09:46:50;;;;;;;53.57;48.30;;;6.00;99.90;;;;;;5163045;27;20874;-78
2024/03/05 09:49:19;;;;;;;51.43;46.03;;;6.00;99.90;;;;;;5162802;27;20474;-78
2024/03/05 09:51:52;;;;;;;56.57;49.47;;;6.00;99.90;;;;;;5162746;27;20480;-78
2024/03/05 09:54:23;;;;;;;54.17;48.33;;;6.00;99.90;;;;;;5162724;27;20436;-77
2024/03/05 09:56:55;;;;;;;50.97;45.63;;;6.10;99.90;;;;;;5162407;27;20446;-77
2024/03/05 09:59:23;;;;;;;51.50;46.00;;;6.10;99.90;;;;;;5162592;27;20467;-78
2024/03/05 10:01:52;;;;;;;51.30;45.20;;;6.10;99.90;;;;;;5181308;27;20452;-78
2024/03/05 10:04:26;;;;;;;53.10;47.70;;;6.10;99.90;;;;;;5162268;27;20451;-78
2024/03/05 10:06:58;;;;;;;48.10;43.10;;;6.10;99.90;;;;;;5162096;27;20933;-77
2024/03/05 10:09:30;;;;;;;47.77;42.73;;;6.20;99.90;;;;;;5162231;27;20464;-78
2024/03/05 10:12:05;;;;;;;48.60;43.03;;;6.20;99.90;;;;;;5162142;27;20503;-78
2024/03/05 10:14:34;;;;;;;50.93;43.40;;;6.20;99.90;;;;;;5162054;27;20517;-78
2024/03/05 10:17:06;;;;;;;52.20;46.77;;;6.20;99.90;;;;;;5180549;27;20438;-78
2024/03/05 10:19:46;;;;;;;49.67;44.63;;;6.20;99.90;;;;;;5180467;27;20947;-77
2024/03/05 10:22:14;;;;;;;51.40;46.20;;;6.20;99.90;;;;;;5161849;27;20442;-78
2024/03/05 10:24:46;;;;;;;47.93;42.90;;;6.20;99.90;;;;;;5180782;27;20437;-77
2024/03/05 10:27:27;;;;;;;48.37;41.83;;;6.20;99.90;;;;;;5162044;27;20457;-78
2024/03/05 10:29:56;;;;;;;47.73;42.73;;;6.30;99.90;;;;;;5161576;27;20546;-78
2024/03/05 10:32:26;;;;;;;48.73;43.50;;;6.30;99.90;;;;;;5161095;27;20492;-77
2024/03/05 10:34:54;;;;;;;46.37;41.43;;;6.30;99.90;;;;;;5161445;27;20942;-77
2024/03/05 10:37:23;;;;;;;49.73;44.63;;;6.30;99.90;;;;;;5161374;27;20430;-78
2024/03/05 10:39:53;;;;;;;46.87;42.03;;;6.40;99.90;;;;;;5161001;27;20833;-78
2024/03/05 10:42:26;;;;;;;48.40;43.30;;;6.40;99.90;;;;;;5161116;27;20472;-78
2024/03/05 10:44:56;;;;;;;46.63;42.00;;;6.40;99.90;;;;;;5161131;27;20494;-78
2024/03/05 10:47:27;;;;;;;46.30;41.80;;;6.40;99.90;;;;;;5161452;27;20451;-78
2024/03/05 10:49:57;;;;;;;48.03;43.13;;;6.40;99.90;;;;;;5161365;27;20440;-78
2024/03/05 10:52:29;;;;;;;47.50;42.77;;;6.40;99.90;;;;;;5160757;27;20529;-78
2024/03/05 10:55:01;;;;;;;48.17;43.33;;;6.40;99.90;;;;;;5160824;27;20498;-78
2024/03/05 10:58:08;;;;;;;46.70;41.90;;;6.40;99.90;;;;;;5161374;27;20475;-78
2024/03/05 11:00:24;;;;;;;44.90;40.40;;;6.40;99.90;;;;;;5160380;27;20948;-77
2024/03/05 11:02:58;;;;;;;48.27;43.53;;;6.50;99.90;;;;;;5181116;27;20921;-79
2024/03/05 11:05:27;;;;;;;48.70;42.47;;;6.40;99.90;;;;;;5183860;27;20477;-78
2024/03/05 11:08:00;;;;;;;42.60;38.30;;;6.50;99.90;;;;;;5179715;27;20464;-78
2024/03/05 11:10:32;;;;;;;41.20;37.10;;;6.40;99.90;;;;;;5179898;27;20759;-78
2024/03/05 11:13:01;;;;;;;43.47;39.17;;;6.40;99.90;;;;;;5160607;27;20448;-78
2024/03/05 11:15:33;;;;;;;39.53;35.70;;;6.40;99.90;;;;;;5160467;27;20445;-77
2024/03/05 11:18:25;;;;;;;41.00;36.93;;;6.40;99.90;;;;;;5160800;27;20476;-78
2024/03/05 11:20:53;;;;;;;40.17;36.30;;;6.40;99.90;;;;;;5160194;27;20442;-77
2024/03/05 11:23:29;;;;;;;41.10;36.93;;;6.40;99.90;;;;;;5179396;27;20443;-77
2024/03/05 11:26:03;;;;;;;43.53;39.27;;;6.40;99.90;;;;;;5160542;27;20474;-78
2024/03/05 11:28:33;;;;;;;40.77;36.70;;;6.40;99.90;;;;;;5159969;27;20525;-78
2024/03/05 11:31:11;;;;;;;40.77;36.80;;;6.40;99.90;;;;;;5160183;27;20442;-78
2024/03/05 11:33:46;;;;;;;39.93;35.40;;;6.40;99.90;;;;;;5178833;27;20787;-78
2024/03/05 11:36:20;;;;;;;40.03;36.30;;;6.40;99.90;;;;;;5160220;27;20776;-78
2024/03/05 11:39:04;;;;;;;41.83;37.43;;;6.40;99.90;;;;;;5159922;27;20499;-78
2024/03/05 11:41:36;;;;;;;42.63;38.43;;;6.50;99.90;;;;;;5159775;27;20857;-78
2024/03/05 11:44:06;;;;;;;40.53;36.13;;;6.50;99.90;;;;;;5159553;27;20807;-77
2024/03/05 11:46:41;;;;;;;39.70;35.93;;;6.50;99.90;;;;;;5158992;27;20462;-77
2024/03/05 11:49:10;;;;;;;41.50;37.50;;;6.50;99.90;;;;;;5159192;27;20463;-77
2024/03/05 11:51:40;;;;;;;39.77;35.97;;;6.50;99.90;;;;;;5159367;27;21013;-76
2024/03/05 11:54:13;;;;;;;38.70;34.70;;;6.50;99.90;;;;;;5178037;27;20430;-77
2024/03/05 11:56:48;;;;;;;40.20;36.30;;;6.50;99.90;;;;;;5159351;27;20476;-76
2024/03/05 11:59:17;;;;;;;39.73;35.80;;;6.50;99.90;;;;;;5158951;27;20466;-77
2024/03/05 12:01:47;;;;;;;38.60;34.83;;;6.50;99.90;;;;;;5159338;27;20440;-76
2024/03/05 12:04:16;;;;;;;39.67;36.00;;;6.50;99.90;;;;;;5158971;27;20437;-76
2024/03/05 12:06:45;;;;;;;37.23;33.43;;;6.50;99.90;;;;;;5159059;27;20491;-76
2024/03/05 12:09:18;;;;;;;37.20;33.73;;;6.50;99.90;;;;;;5159185;27;20465;-76
2024/03/05 12:12:05;;;;;;;41.00;35.37;;;6.50;99.90;;;;;;5158950;27;20445;-77
2024/03/05 12:14:36;;;;;;;39.90;36.13;;;6.50;99.90;;;;;;5158962;27;20433;-76
2024/03/05 12:17:07;;;;;;;39.60;35.87;;;6.50;99.90;;;;;;5177550;27;20430;-76
2024/03/05 12:19:37;;;;;;;38.23;34.43;;;6.50;99.90;;;;;;5158895;27;20486;-76
2024/03/05 12:22:10;;;;;;;36.83;33.03;;;6.50;99.90;;;;;;5158821;27;20448;-76
2024/03/05 12:24:39;;;;;;;36.13;32.50;;;6.50;99.90;;;;;;5159245;27;20438;-77
2024/03/05 12:27:12;;;;;;;36.13;32.60;;;6.50;99.90;;;;;;5158468;27;21020;-77
2024/03/05 12:29:44;;;;;;;37.60;33.87;;;6.50;99.90;;;;;;5158463;27;20468;-77
2024/03/05 12:32:13;;;;;;;37.47;33.60;;;6.50;99.90;;;;;;5159012;27;20460;-76
2024/03/05 12:34:47;;;;;;;39.90;36.10;;;6.50;99.90;;;;;;5158565;27;20867;-77
2024/03/05 12:37:19;;;;;;;40.57;36.27;;;6.50;99.90;;;;;;5177749;27;20452;-77
2024/03/05 12:39:59;;;;;;;37.60;34.10;;;6.50;99.90;;;;;;5158228;27;20459;-77
2024/03/05 12:42:29;;;;;;;38.57;34.97;;;6.50;99.90;;;;;;5157912;27;20448;-77
2024/03/05 12:45:07;;;;;;;36.60;32.87;;;6.50;99.90;;;;;;5158150;27;20487;-77
2024/03/05 12:47:38;;;;;;;37.87;34.17;;;6.50;99.90;;;;;;5177190;27;20463;-78
2024/03/05 12:50:09;;;;;;;35.37;31.80;;;6.50;99.90;;;;;;5158023;27;20436;-77
2024/03/05 12:52:37;;;;;;;37.80;34.20;;;6.60;99.90;;;;;;5176782;27;20417;-77
2024/03/05 12:55:09;;;;;;;34.63;31.40;;;6.60;99.90;;;;;;5160150;27;20447;-79
2024/03/05 12:57:39;;;;;;;35.37;31.90;;;6.60;99.90;;;;;;5158556;27;20809;-79
2024/03/05 13:00:12;;;;;;;34.93;31.60;;;6.60;99.90;;;;;;5178028;27;20417;-78